Sabina, Illinois
Current Conditions -  °F | °C
As of 2:56 PM on Friday 19 Dec 2014 (Local Time) from KBMI Reporting Station
Scattered Clouds Scattered Clouds  
Wind Chill: 23°   Ceiling: Unl
Heat Index: 31°   Visibility: 10mi
Dew Point: 23°   Wind: 9mph
Humidity: 72%   Direction: 230°SW
Pressure: 30.3"   Gusts: NA
Location:  40.382°N, 88.6331°W
Report Text: KBMI 192056Z 23008KT 10SM SCT023 M01/M05 A3030 RMK AO2 53003 T10051050 SLP283
Loading
Personal Weather Stations






























Interactive Weather Map New forecast layout! Learn more

10-Day Weather Forecast

Advertisements
Track Severe Weather on mobile